EmailTwitter


Observations de surface / Québec / CYUL (71627)

Régions: Québec | Canada | États-Unis | Europe | France | UK | Ailleurs
Station
Affichage
Infos & localisation pour CYUL (71627) | Aide pour décoder les METARs

Observations prises le 2017-08-21 à 08H00 UTC à MONTREAL INTL A, QB (CYUL)

Etat du ciel: dégagé.

Température: 19.0 Celsius

Point de rosée: 17.0 Celsius

Humidité relative: 88%

Indice Humidex: 24.

Vents: Sud-ouest à 19 km/h ou 10 noeuds.

Pression au niveau moyen de la mer: 101.81 kilopascals.

Calage altimétrique: 101.79 kilopascals ou 30.06 pouces de mercure.

Visibilité horizontale: 15.00 milles terrestres ou 24.00 kilomètres.

Observation METAR:

CYUL 210800Z 24010KT 15SM SKC 19/17 A3006 RMK SLP181 DENSITY ALT 500FT=